sensor_id;sensor_type;location;lat;lon;timestamp;pressure;altitude;pressure_sealevel;temperature;humidity
77161;BME280;66135;0.000;0.000;2023-07-13T00:02:00;101316.28;;;24.62;56.49
77161;BME280;66135;0.000;0.000;2023-07-13T00:04:25;101320.06;;;24.61;56.51
77161;BME280;66135;0.000;0.000;2023-07-13T00:06:51;101320.06;;;24.61;56.50
77161;BME280;66135;0.000;0.000;2023-07-13T00:09:18;101312.91;;;24.60;56.32
77161;BME280;66135;0.000;0.000;2023-07-13T00:11:45;101305.72;;;24.59;56.14
77161;BME280;66135;0.000;0.000;2023-07-13T00:14:13;101313.09;;;24.58;56.18
77161;BME280;66135;0.000;0.000;2023-07-13T00:16:39;101315.84;;;24.58;56.38
77161;BME280;66135;0.000;0.000;2023-07-13T00:19:09;101319.41;;;24.59;56.32
77161;BME280;66135;0.000;0.000;2023-07-13T00:21:35;101327.84;;;24.57;56.11
77161;BME280;66135;0.000;0.000;2023-07-13T00:24:00;101331.44;;;24.58;56.40
77161;BME280;66135;0.000;0.000;2023-07-13T00:26:26;101314.34;;;24.56;56.17
77161;BME280;66135;0.000;0.000;2023-07-13T00:28:52;101314.34;;;24.56;56.16
77161;BME280;66135;0.000;0.000;2023-07-13T00:31:17;101312.69;;;24.55;56.03
77161;BME280;66135;0.000;0.000;2023-07-13T00:33:43;101310.75;;;24.55;56.06
77161;BME280;66135;0.000;0.000;2023-07-13T00:36:10;101315.41;;;24.55;56.13
77161;BME280;66135;0.000;0.000;2023-07-13T00:38:36;101309.94;;;24.55;56.12
77161;BME280;66135;0.000;0.000;2023-07-13T00:41:02;101306.34;;;24.54;56.16
77161;BME280;66135;0.000;0.000;2023-07-13T00:43:28;101328.25;;;24.54;56.13
77161;BME280;66135;0.000;0.000;2023-07-13T00:48:26;101329.28;;;24.53;55.98
77161;BME280;66135;0.000;0.000;2023-07-13T00:50:55;101331.19;;;24.52;56.21
77161;BME280;66135;0.000;0.000;2023-07-13T00:53:21;101335.81;;;24.52;56.29
77161;BME280;66135;0.000;0.000;2023-07-13T00:55:49;101327.59;;;24.52;55.84
77161;BME280;66135;0.000;0.000;2023-07-13T00:58:15;101324.88;;;24.52;55.87
77161;BME280;66135;0.000;0.000;2023-07-13T01:00:41;101325.94;;;24.51;56.15
77161;BME280;66135;0.000;0.000;2023-07-13T01:03:07;101328.69;;;24.51;55.88
77161;BME280;66135;0.000;0.000;2023-07-13T01:05:34;101327.19;;;24.48;55.97
77161;BME280;66135;0.000;0.000;2023-07-13T01:08:01;101323.59;;;24.48;55.88
77161;BME280;66135;0.000;0.000;2023-07-13T01:10:27;101326.97;;;24.50;56.17
77161;BME280;66135;0.000;0.000;2023-07-13T01:12:53;101326.31;;;24.48;55.84
77161;BME280;66135;0.000;0.000;2023-07-13T01:18:25;101332.66;;;24.48;56.13
77161;BME280;66135;0.000;0.000;2023-07-13T01:20:59;101333.72;;;24.47;55.90
77161;BME280;66135;0.000;0.000;2023-07-13T01:23:27;101330.13;;;24.47;56.02
77161;BME280;66135;0.000;0.000;2023-07-13T01:28:18;101337.69;;;24.45;56.04
77161;BME280;66135;0.000;0.000;2023-07-13T01:30:44;101333.28;;;24.44;56.03
77161;BME280;66135;0.000;0.000;2023-07-13T01:33:12;101318.72;;;24.43;55.68
77161;BME280;66135;0.000;0.000;2023-07-13T01:35:39;101318.72;;;24.43;55.87
77161;BME280;66135;0.000;0.000;2023-07-13T01:38:05;101329.69;;;24.43;56.03
77161;BME280;66135;0.000;0.000;2023-07-13T01:40:31;101329.91;;;24.42;55.80
77161;BME280;66135;0.000;0.000;2023-07-13T01:42:57;101322.72;;;24.41;55.79
77161;BME280;66135;0.000;0.000;2023-07-13T01:45:23;101331.78;;;24.41;55.83
77161;BME280;66135;0.000;0.000;2023-07-13T01:47:48;101330.94;;;24.41;55.96
77161;BME280;66135;0.000;0.000;2023-07-13T01:50:14;101327.16;;;24.42;55.82
77161;BME280;66135;0.000;0.000;2023-07-13T01:52:39;101328.19;;;24.41;55.96
77161;BME280;66135;0.000;0.000;2023-07-13T01:55:05;101336.41;;;24.41;55.95
77161;BME280;66135;0.000;0.000;2023-07-13T01:57:30;101330.09;;;24.40;55.67
77161;BME280;66135;0.000;0.000;2023-07-13T01:59:56;101339.34;;;24.39;55.70
77161;BME280;66135;0.000;0.000;2023-07-13T02:02:22;101340.22;;;24.40;55.96
77161;BME280;66135;0.000;0.000;2023-07-13T02:04:47;101347.56;;;24.39;55.66
77161;BME280;66135;0.000;0.000;2023-07-13T02:07:13;101345.03;;;24.38;55.68
77161;BME280;66135;0.000;0.000;2023-07-13T02:09:40;101345.91;;;24.38;55.75
77161;BME280;66135;0.000;0.000;2023-07-13T02:12:06;101349.47;;;24.39;55.72
77161;BME280;66135;0.000;0.000;2023-07-13T02:14:31;101356.00;;;24.38;55.87
77161;BME280;66135;0.000;0.000;2023-07-13T02:16:57;101344.19;;;24.37;55.58
77161;BME280;66135;0.000;0.000;2023-07-13T02:19:22;101349.66;;;24.37;55.74
77161;BME280;66135;0.000;0.000;2023-07-13T02:21:47;101351.56;;;24.37;55.63
77161;BME280;66135;0.000;0.000;2023-07-13T02:24:13;101342.50;;;24.36;56.00
77161;BME280;66135;0.000;0.000;2023-07-13T02:26:43;101352.59;;;24.36;55.71
77161;BME280;66135;0.000;0.000;2023-07-13T02:29:10;101345.44;;;24.35;55.38
77161;BME280;66135;0.000;0.000;2023-07-13T02:31:35;101346.31;;;24.35;55.79
77161;BME280;66135;0.000;0.000;2023-07-13T02:34:01;101346.47;;;24.34;55.55
77161;BME280;66135;0.000;0.000;2023-07-13T02:36:27;101348.41;;;24.33;55.54
77161;BME280;66135;0.000;0.000;2023-07-13T02:38:52;101341.22;;;24.32;55.39
77161;BME280;66135;0.000;0.000;2023-07-13T02:41:18;101346.69;;;24.32;55.71
77161;BME280;66135;0.000;0.000;2023-07-13T02:43:43;101342.06;;;24.33;55.74
77161;BME280;66135;0.000;0.000;2023-07-13T02:46:09;101339.53;;;24.31;55.70
77161;BME280;66135;0.000;0.000;2023-07-13T02:48:35;101344.16;;;24.31;55.69
77161;BME280;66135;0.000;0.000;2023-07-13T02:51:01;101337.00;;;24.30;55.51
77161;BME280;66135;0.000;0.000;2023-07-13T02:53:27;101342.47;;;24.30;55.61
77161;BME280;66135;0.000;0.000;2023-07-13T02:55:52;101345.22;;;24.30;55.89
77161;BME280;66135;0.000;0.000;2023-07-13T02:58:18;101348.16;;;24.28;55.34
77161;BME280;66135;0.000;0.000;2023-07-13T03:00:45;101346.25;;;24.29;55.45
77161;BME280;66135;0.000;0.000;2023-07-13T03:03:12;101345.44;;;24.28;55.59
77161;BME280;66135;0.000;0.000;2023-07-13T03:05:41;101341.84;;;24.28;55.50
77161;BME280;66135;0.000;0.000;2023-07-13T03:08:08;101350.91;;;24.28;55.65
77161;BME280;66135;0.000;0.000;2023-07-13T03:10:34;101361.84;;;24.28;55.67
77161;BME280;66135;0.000;0.000;2023-07-13T03:13:01;101349.19;;;24.27;55.46
77161;BME280;66135;0.000;0.000;2023-07-13T03:15:27;101355.75;;;24.26;55.63
77161;BME280;66135;0.000;0.000;2023-07-13T03:17:52;101355.94;;;24.25;55.63
77161;BME280;66135;0.000;0.000;2023-07-13T03:20:18;101357.63;;;24.26;55.63
77161;BME280;66135;0.000;0.000;2023-07-13T03:22:43;101351.28;;;24.25;55.45
77161;BME280;66135;0.000;0.000;2023-07-13T03:25:09;101354.22;;;24.24;55.58
77161;BME280;66135;0.000;0.000;2023-07-13T03:27:34;101359.72;;;24.24;55.33
77161;BME280;66135;0.000;0.000;2023-07-13T03:30:00;101369.81;;;24.23;55.28
77161;BME280;66135;0.000;0.000;2023-07-13T03:32:26;101364.34;;;24.23;55.56
77161;BME280;66135;0.000;0.000;2023-07-13T03:34:51;101373.59;;;24.22;55.52
77161;BME280;66135;0.000;0.000;2023-07-13T03:37:16;101374.25;;;24.24;55.50
77161;BME280;66135;0.000;0.000;2023-07-13T03:39:42;101378.03;;;24.23;55.65
77161;BME280;66135;0.000;0.000;2023-07-13T03:42:07;101379.09;;;24.22;55.68
77161;BME280;66135;0.000;0.000;2023-07-13T03:44:33;101375.50;;;24.22;55.42
77161;BME280;66135;0.000;0.000;2023-07-13T03:46:58;101381.81;;;24.22;55.47
77161;BME280;66135;0.000;0.000;2023-07-13T03:49:24;101382.88;;;24.21;55.53
77161;BME280;66135;0.000;0.000;2023-07-13T03:51:49;101383.91;;;24.20;55.57
77161;BME280;66135;0.000;0.000;2023-07-13T03:54:15;101381.16;;;24.20;55.40
77161;BME280;66135;0.000;0.000;2023-07-13T03:56:40;101380.34;;;24.20;55.47
77161;BME280;66135;0.000;0.000;2023-07-13T03:59:05;101373.16;;;24.19;55.18
77161;BME280;66135;0.000;0.000;2023-07-13T04:01:31;101381.59;;;24.17;55.71
77161;BME280;66135;0.000;0.000;2023-07-13T04:03:56;101385.19;;;24.18;55.56
77161;BME280;66135;0.000;0.000;2023-07-13T04:06:26;101383.25;;;24.18;55.50
77161;BME280;66135;0.000;0.000;2023-07-13T04:08:54;101391.69;;;24.17;55.43
77161;BME280;66135;0.000;0.000;2023-07-13T04:11:23;101396.13;;;24.18;55.29
77161;BME280;66135;0.000;0.000;2023-07-13T04:13:49;101395.28;;;24.17;55.47
77161;BME280;66135;0.000;0.000;2023-07-13T04:16:16;101396.34;;;24.16;55.39
77161;BME280;66135;0.000;0.000;2023-07-13T04:18:41;101399.06;;;24.16;55.78
77161;BME280;66135;0.000;0.000;2023-07-13T04:21:07;101399.06;;;24.16;55.39
77161;BME280;66135;0.000;0.000;2023-07-13T04:23:35;101398.41;;;24.14;55.55
77161;BME280;66135;0.000;0.000;2023-07-13T04:26:00;101406.63;;;24.14;55.43
77161;BME280;66135;0.000;0.000;2023-07-13T04:28:26;101405.78;;;24.14;55.55
77161;BME280;66135;0.000;0.000;2023-07-13T04:30:52;101402.19;;;24.13;55.58
77161;BME280;66135;0.000;0.000;2023-07-13T04:33:19;101403.44;;;24.11;55.26
77161;BME280;66135;0.000;0.000;2023-07-13T04:35:51;101410.59;;;24.12;55.57
77161;BME280;66135;0.000;0.000;2023-07-13T04:38:24;101409.56;;;24.13;55.47
77161;BME280;66135;0.000;0.000;2023-07-13T04:40:51;101412.50;;;24.11;55.45
77161;BME280;66135;0.000;0.000;2023-07-13T04:43:17;101414.41;;;24.11;55.59
77161;BME280;66135;0.000;0.000;2023-07-13T04:45:42;101415.22;;;24.11;55.67
77161;BME280;66135;0.000;0.000;2023-07-13T04:48:08;101411.66;;;24.11;55.75
77161;BME280;66135;0.000;0.000;2023-07-13T04:50:36;101420.91;;;24.10;55.60
77161;BME280;66135;0.000;0.000;2023-07-13T04:53:02;101421.75;;;24.10;55.78
77161;BME280;66135;0.000;0.000;2023-07-13T04:55:29;101420.09;;;24.09;55.41
77161;BME280;66135;0.000;0.000;2023-07-13T04:57:56;101424.50;;;24.10;55.69
77161;BME280;66135;0.000;0.000;2023-07-13T05:00:21;101420.09;;;24.09;55.79
77161;BME280;66135;0.000;0.000;2023-07-13T05:02:46;101434.78;;;24.08;55.74
77161;BME280;66135;0.000;0.000;2023-07-13T05:05:12;101428.47;;;24.08;55.58
77161;BME280;66135;0.000;0.000;2023-07-13T05:07:38;101434.78;;;24.08;55.86
77161;BME280;66135;0.000;0.000;2023-07-13T05:10:04;101432.91;;;24.09;55.74
77161;BME280;66135;0.000;0.000;2023-07-13T05:12:30;101435.00;;;24.07;55.69
77161;BME280;66135;0.000;0.000;2023-07-13T05:14:55;101431.41;;;24.06;55.54
77161;BME280;66135;0.000;0.000;2023-07-13T05:17:21;101444.88;;;24.08;55.53
77161;BME280;66135;0.000;0.000;2023-07-13T05:19:46;101439.41;;;24.08;55.65
77161;BME280;66135;0.000;0.000;2023-07-13T05:22:11;101439.41;;;24.08;55.86
77161;BME280;66135;0.000;0.000;2023-07-13T05:24:37;101443.22;;;24.07;55.97
77161;BME280;66135;0.000;0.000;2023-07-13T05:27:03;101446.81;;;24.07;55.77
77161;BME280;66135;0.000;0.000;2023-07-13T05:29:28;101447.00;;;24.06;55.90
77161;BME280;66135;0.000;0.000;2023-07-13T05:31:54;101445.31;;;24.05;55.86
77161;BME280;66135;0.000;0.000;2023-07-13T05:34:19;101457.97;;;24.06;55.71
77161;BME280;66135;0.000;0.000;2023-07-13T05:36:45;101453.50;;;24.05;55.84
77161;BME280;66135;0.000;0.000;2023-07-13T05:39:10;101458.97;;;24.05;55.67
77161;BME280;66135;0.000;0.000;2023-07-13T05:41:37;101454.56;;;24.04;55.69
77161;BME280;66135;0.000;0.000;2023-07-13T05:44:02;101456.44;;;24.03;55.91
77161;BME280;66135;0.000;0.000;2023-07-13T05:46:28;101454.56;;;24.04;55.98
77161;BME280;66135;0.000;0.000;2023-07-13T05:48:53;101457.31;;;24.04;55.98
77161;BME280;66135;0.000;0.000;2023-07-13T05:51:19;101464.88;;;24.02;56.34
77161;BME280;66135;0.000;0.000;2023-07-13T05:53:45;101466.75;;;24.01;56.45
77161;BME280;66135;0.000;0.000;2023-07-13T05:56:10;101467.81;;;24.00;56.04
77161;BME280;66135;0.000;0.000;2023-07-13T05:58:36;101474.09;;;24.01;55.93
77161;BME280;66135;0.000;0.000;2023-07-13T06:01:05;101462.34;;;24.00;56.36
77161;BME280;66135;0.000;0.000;2023-07-13T06:03:30;101477.69;;;24.01;55.91
77161;BME280;66135;0.000;0.000;2023-07-13T06:05:56;101484.03;;;24.02;56.31
77161;BME280;66135;0.000;0.000;2023-07-13T06:08:22;101468.63;;;24.01;56.01
77161;BME280;66135;0.000;0.000;2023-07-13T06:10:47;101480.44;;;24.01;56.12
77161;BME280;66135;0.000;0.000;2023-07-13T06:13:13;101486.97;;;24.00;56.28
77161;BME280;66135;0.000;0.000;2023-07-13T06:15:38;101490.53;;;24.01;56.54
77161;BME280;66135;0.000;0.000;2023-07-13T06:18:03;101493.25;;;24.01;56.36
77161;BME280;66135;0.000;0.000;2023-07-13T06:20:30;101492.59;;;23.99;56.24
77161;BME280;66135;0.000;0.000;2023-07-13T06:22:58;101492.44;;;24.00;56.46
77161;BME280;66135;0.000;0.000;2023-07-13T06:25:23;101486.09;;;24.00;56.30
77161;BME280;66135;0.000;0.000;2023-07-13T06:27:49;101482.50;;;23.99;56.42
77161;BME280;66135;0.000;0.000;2023-07-13T06:30:14;101492.44;;;24.00;56.29
77161;BME280;66135;0.000;0.000;2023-07-13T06:32:39;101494.31;;;24.00;56.26
77161;BME280;66135;0.000;0.000;2023-07-13T06:35:05;101485.25;;;23.99;56.66
77161;BME280;66135;0.000;0.000;2023-07-13T06:37:31;101496.19;;;23.99;56.61
77161;BME280;66135;0.000;0.000;2023-07-13T06:39:56;101502.53;;;24.00;56.42
77161;BME280;66135;0.000;0.000;2023-07-13T06:42:21;101508.00;;;24.00;56.36
77161;BME280;66135;0.000;0.000;2023-07-13T06:44:47;101511.59;;;24.00;56.51
77161;BME280;66135;0.000;0.000;2023-07-13T06:47:12;101509.03;;;23.99;56.46
77161;BME280;66135;0.000;0.000;2023-07-13T06:49:38;101511.75;;;23.99;56.40
77161;BME280;66135;0.000;0.000;2023-07-13T06:52:03;101504.59;;;23.98;56.63
77161;BME280;66135;0.000;0.000;2023-07-13T06:54:29;101509.03;;;23.99;56.37
77161;BME280;66135;0.000;0.000;2023-07-13T06:56:55;101511.75;;;23.99;56.25
77161;BME280;66135;0.000;0.000;2023-07-13T06:59:20;101516.22;;;24.00;56.84
77161;BME280;66135;0.000;0.000;2023-07-13T07:01:45;101513.66;;;23.98;56.47
77161;BME280;66135;0.000;0.000;2023-07-13T07:04:11;101518.25;;;23.98;56.51
77161;BME280;66135;0.000;0.000;2023-07-13T07:06:36;101519.13;;;23.98;56.91
77161;BME280;66135;0.000;0.000;2023-07-13T07:09:02;101523.75;;;23.98;56.80
77161;BME280;66135;0.000;0.000;2023-07-13T07:11:27;101515.53;;;23.98;56.68
77161;BME280;66135;0.000;0.000;2023-07-13T07:13:53;101522.72;;;23.99;56.72
77161;BME280;66135;0.000;0.000;2023-07-13T07:16:19;101517.25;;;23.99;56.70
77161;BME280;66135;0.000;0.000;2023-07-13T07:18:46;101523.75;;;23.98;56.77
77161;BME280;66135;0.000;0.000;2023-07-13T07:21:11;101525.63;;;23.97;56.81
77161;BME280;66135;0.000;0.000;2023-07-13T07:23:37;101526.47;;;23.98;57.11
77161;BME280;66135;0.000;0.000;2023-07-13T07:26:02;101521.84;;;23.98;56.80
77161;BME280;66135;0.000;0.000;2023-07-13T07:28:28;101523.75;;;23.98;56.76
77161;BME280;66135;0.000;0.000;2023-07-13T07:30:56;101527.34;;;23.98;57.11
77161;BME280;66135;0.000;0.000;2023-07-13T07:33:22;101525.44;;;23.99;56.80
77161;BME280;66135;0.000;0.000;2023-07-13T07:35:48;101518.94;;;24.00;56.98
77161;BME280;66135;0.000;0.000;2023-07-13T07:38:13;101530.94;;;23.99;57.00
77161;BME280;66135;0.000;0.000;2023-07-13T07:40:40;101528.34;;;23.97;57.09
77161;BME280;66135;0.000;0.000;2023-07-13T07:43:07;101525.63;;;23.97;56.73
77161;BME280;66135;0.000;0.000;2023-07-13T07:45:32;101529.22;;;23.98;56.83
77161;BME280;66135;0.000;0.000;2023-07-13T07:47:58;101523.75;;;23.98;56.94
77161;BME280;66135;0.000;0.000;2023-07-13T07:50:28;101528.34;;;23.97;57.20
77161;BME280;66135;0.000;0.000;2023-07-13T07:52:53;101535.53;;;23.98;57.17
77161;BME280;66135;0.000;0.000;2023-07-13T07:55:21;101523.94;;;23.96;56.99
77161;BME280;66135;0.000;0.000;2023-07-13T07:57:47;101529.22;;;23.98;57.21
77161;BME280;66135;0.000;0.000;2023-07-13T08:00:13;101538.28;;;23.98;57.18
77161;BME280;66135;0.000;0.000;2023-07-13T08:02:38;101535.53;;;23.98;57.26
77161;BME280;66135;0.000;0.000;2023-07-13T08:05:07;101543.75;;;23.98;56.91
77161;BME280;66135;0.000;0.000;2023-07-13T08:07:32;101544.16;;;23.95;57.33
77161;BME280;66135;0.000;0.000;2023-07-13T08:09:57;101544.97;;;23.96;57.38
77161;BME280;66135;0.000;0.000;2023-07-13T08:12:23;101533.22;;;23.95;57.43
77161;BME280;66135;0.000;0.000;2023-07-13T08:14:51;101533.38;;;23.94;57.66
77161;BME280;66135;0.000;0.000;2023-07-13T08:17:23;101535.09;;;23.95;57.21
77161;BME280;66135;0.000;0.000;2023-07-13T08:19:49;101533.00;;;23.97;57.55
77161;BME280;66135;0.000;0.000;2023-07-13T08:22:14;101531.09;;;23.97;57.42
77161;BME280;66135;0.000;0.000;2023-07-13T08:24:40;101534.69;;;23.98;57.42
77161;BME280;66135;0.000;0.000;2023-07-13T08:27:07;101531.94;;;23.98;57.27
77161;BME280;66135;0.000;0.000;2023-07-13T08:29:33;101533.66;;;23.99;57.67
77161;BME280;66135;0.000;0.000;2023-07-13T08:31:58;101532.63;;;24.00;57.46
77161;BME280;66135;0.000;0.000;2023-07-13T08:34:24;101538.97;;;24.00;57.36
77161;BME280;66135;0.000;0.000;2023-07-13T08:36:49;101536.22;;;24.00;57.74
77161;BME280;66135;0.000;0.000;2023-07-13T08:39:14;101535.16;;;24.01;57.96
77161;BME280;66135;0.000;0.000;2023-07-13T08:41:40;101542.53;;;24.01;57.84
77161;BME280;66135;0.000;0.000;2023-07-13T08:44:13;101548.84;;;24.01;57.91
77161;BME280;66135;0.000;0.000;2023-07-13T08:46:42;101533.28;;;24.02;58.05
77161;BME280;66135;0.000;0.000;2023-07-13T08:49:18;101537.91;;;24.01;57.82
77161;BME280;66135;0.000;0.000;2023-07-13T08:51:55;101527.16;;;24.00;57.96
77161;BME280;66135;0.000;0.000;2023-07-13T08:54:30;101531.78;;;23.99;57.88
77161;BME280;66135;0.000;0.000;2023-07-13T08:56:58;101536.22;;;24.00;58.09
77161;BME280;66135;0.000;0.000;2023-07-13T08:59:28;101535.16;;;24.01;58.05
77161;BME280;66135;0.000;0.000;2023-07-13T09:05:04;101532.44;;;24.01;58.20
77161;BME280;66135;0.000;0.000;2023-07-13T09:10:21;101534.31;;;24.01;58.42
77161;BME280;66135;0.000;0.000;2023-07-13T09:15:43;101538.75;;;24.02;58.56
77161;BME280;66135;0.000;0.000;2023-07-13T09:18:43;101539.78;;;24.01;58.58
77161;BME280;66135;0.000;0.000;2023-07-13T09:21:17;101536.03;;;24.02;58.56
77161;BME280;66135;0.000;0.000;2023-07-13T09:23:44;101537.06;;;24.01;58.52
77161;BME280;66135;0.000;0.000;2023-07-13T09:26:14;101528.84;;;24.01;58.40
77161;BME280;66135;0.000;0.000;2023-07-13T09:28:44;101534.16;;;24.02;58.67
77161;BME280;66135;0.000;0.000;2023-07-13T09:31:29;101525.94;;;24.02;58.37
77161;BME280;66135;0.000;0.000;2023-07-13T09:33:59;101534.97;;;24.03;58.80
77161;BME280;66135;0.000;0.000;2023-07-13T09:36:28;101524.88;;;24.03;58.74
77161;BME280;66135;0.000;0.000;2023-07-13T09:39:05;101521.09;;;24.04;58.95
77161;BME280;66135;0.000;0.000;2023-07-13T09:41:59;101528.28;;;24.05;58.89
77161;BME280;66135;0.000;0.000;2023-07-13T09:46:57;101542.81;;;24.06;58.54
77161;BME280;66135;0.000;0.000;2023-07-13T09:49:24;101529.94;;;24.06;58.79
77161;BME280;66135;0.000;0.000;2023-07-13T09:51:58;101533.53;;;24.07;59.23
77161;BME280;66135;0.000;0.000;2023-07-13T09:54:25;101537.13;;;24.07;59.00
77161;BME280;66135;0.000;0.000;2023-07-13T09:57:01;101532.50;;;24.08;58.92
77161;BME280;66135;0.000;0.000;2023-07-13T09:59:40;101537.97;;;24.08;59.04
77161;BME280;66135;0.000;0.000;2023-07-13T10:02:30;101531.66;;;24.07;59.05
77161;BME280;66135;0.000;0.000;2023-07-13T10:05:03;101539.66;;;24.09;58.98
77161;BME280;66135;0.000;0.000;2023-07-13T10:07:30;101539.66;;;24.09;59.39
77161;BME280;66135;0.000;0.000;2023-07-13T10:09:58;101532.13;;;24.11;59.03
77161;BME280;66135;0.000;0.000;2023-07-13T10:12:27;101541.16;;;24.11;59.27
77161;BME280;66135;0.000;0.000;2023-07-13T10:14:58;101538.03;;;24.14;59.30
77161;BME280;66135;0.000;0.000;2023-07-13T10:17:29;101537.84;;;24.16;59.31
77161;BME280;66135;0.000;0.000;2023-07-13T10:20:00;101549.81;;;24.15;59.27
77161;BME280;66135;0.000;0.000;2023-07-13T10:25:18;101538.88;;;24.15;59.38
77161;BME280;66135;0.000;0.000;2023-07-13T10:27:45;101536.97;;;24.15;59.76
77161;BME280;66135;0.000;0.000;2023-07-13T10:30:21;101546.72;;;24.18;59.41
77161;BME280;66135;0.000;0.000;2023-07-13T10:32:49;101541.22;;;24.18;59.71
77161;BME280;66135;0.000;0.000;2023-07-13T10:35:17;101540.81;;;24.21;59.63
77161;BME280;66135;0.000;0.000;2023-07-13T10:38:10;101548.19;;;24.20;59.74
77161;BME280;66135;0.000;0.000;2023-07-13T10:40:58;101547.38;;;24.20;60.05
77161;BME280;66135;0.000;0.000;2023-07-13T10:43:35;101542.72;;;24.20;60.11
77161;BME280;66135;0.000;0.000;2023-07-13T10:46:04;101536.41;;;24.20;59.71
77161;BME280;66135;0.000;0.000;2023-07-13T10:48:31;101542.72;;;24.20;59.88
77161;BME280;66135;0.000;0.000;2023-07-13T10:51:00;101548.38;;;24.19;59.67
77161;BME280;66135;0.000;0.000;2023-07-13T10:53:32;101549.44;;;24.18;59.63
77161;BME280;66135;0.000;0.000;2023-07-13T10:58:43;101551.97;;;24.19;59.84
77161;BME280;66135;0.000;0.000;2023-07-13T11:01:13;101561.06;;;24.20;59.62
77161;BME280;66135;0.000;0.000;2023-07-13T11:06:15;101553.66;;;24.20;59.61
77161;BME280;66135;0.000;0.000;2023-07-13T11:21:26;101553.47;;;24.22;60.02
77161;BME280;66135;0.000;0.000;2023-07-13T11:24:14;101550.94;;;24.20;60.05
77161;BME280;66135;0.000;0.000;2023-07-13T11:29:33;101553.66;;;24.20;60.08
77161;BME280;66135;0.000;0.000;2023-07-13T11:32:22;101553.66;;;24.20;59.94
77161;BME280;66135;0.000;0.000;2023-07-13T11:34:48;101555.56;;;24.20;59.98
77161;BME280;66135;0.000;0.000;2023-07-13T11:37:17;101553.66;;;24.20;59.90
77161;BME280;66135;0.000;0.000;2023-07-13T11:39:44;101546.09;;;24.22;59.78
77161;BME280;66135;0.000;0.000;2023-07-13T11:42:16;101548.63;;;24.24;60.23
77161;BME280;66135;0.000;0.000;2023-07-13T11:44:45;101545.91;;;24.24;60.05
77161;BME280;66135;0.000;0.000;2023-07-13T11:47:16;101543.38;;;24.22;59.82
77161;BME280;66135;0.000;0.000;2023-07-13T11:49:49;101553.25;;;24.23;59.92
77161;BME280;66135;0.000;0.000;2023-07-13T11:52:21;101547.78;;;24.23;59.94
77161;BME280;66135;0.000;0.000;2023-07-13T11:54:56;101553.91;;;24.25;60.20
77161;BME280;66135;0.000;0.000;2023-07-13T11:57:28;101555.81;;;24.25;60.06
77161;BME280;66135;0.000;0.000;2023-07-13T11:59:55;101546.56;;;24.26;59.91
77161;BME280;66135;0.000;0.000;2023-07-13T12:02:36;101534.75;;;24.25;59.97
77161;BME280;66135;0.000;0.000;2023-07-13T12:05:04;101547.41;;;24.26;59.95
77161;BME280;66135;0.000;0.000;2023-07-13T12:07:33;101549.09;;;24.27;59.95
77161;BME280;66135;0.000;0.000;2023-07-13T12:12:29;101538.59;;;24.31;60.42
77161;BME280;66135;0.000;0.000;2023-07-13T12:14:55;101547.84;;;24.30;59.87
77161;BME280;66135;0.000;0.000;2023-07-13T12:17:23;101557.97;;;24.29;60.11
77161;BME280;66135;0.000;0.000;2023-07-13T12:19:50;101564.28;;;24.30;60.07
77161;BME280;66135;0.000;0.000;2023-07-13T12:22:17;101557.75;;;24.31;59.76
77161;BME280;66135;0.000;0.000;2023-07-13T12:24:45;101564.94;;;24.32;60.27
77161;BME280;66135;0.000;0.000;2023-07-13T12:27:23;101564.75;;;24.33;59.88
77161;BME280;66135;0.000;0.000;2023-07-13T12:29:58;101563.88;;;24.33;60.35
77161;BME280;66135;0.000;0.000;2023-07-13T12:32:26;101559.25;;;24.33;60.34
77161;BME280;66135;0.000;0.000;2023-07-13T12:35:15;101567.47;;;24.33;59.71
77161;BME280;66135;0.000;0.000;2023-07-13T12:37:45;101561.16;;;24.33;60.18
77161;BME280;66135;0.000;0.000;2023-07-13T12:40:19;101568.31;;;24.34;59.60
77161;BME280;66135;0.000;0.000;2023-07-13T12:42:47;101571.03;;;24.34;60.28
77161;BME280;66135;0.000;0.000;2023-07-13T12:45:25;101571.03;;;24.34;60.01
77161;BME280;66135;0.000;0.000;2023-07-13T12:47:59;101576.53;;;24.34;60.30
77161;BME280;66135;0.000;0.000;2023-07-13T12:50:30;101580.97;;;24.35;59.92
77161;BME280;66135;0.000;0.000;2023-07-13T12:53:02;101591.06;;;24.34;60.05
77161;BME280;66135;0.000;0.000;2023-07-13T12:55:47;101592.94;;;24.34;60.10
77161;BME280;66135;0.000;0.000;2023-07-13T12:58:19;101594.66;;;24.35;60.01
77161;BME280;66135;0.000;0.000;2023-07-13T13:00:50;101589.38;;;24.33;59.93
77161;BME280;66135;0.000;0.000;2023-07-13T13:03:48;101596.75;;;24.33;60.10
77161;BME280;66135;0.000;0.000;2023-07-13T13:08:45;101592.13;;;24.33;59.97
77161;BME280;66135;0.000;0.000;2023-07-13T13:11:10;101600.34;;;24.33;60.10
77161;BME280;66135;0.000;0.000;2023-07-13T13:13:36;101609.59;;;24.32;60.02
77161;BME280;66135;0.000;0.000;2023-07-13T13:19:24;101613.38;;;24.31;59.86
77161;BME280;66135;0.000;0.000;2023-07-13T13:21:50;101609.78;;;24.31;60.12
77161;BME280;66135;0.000;0.000;2023-07-13T13:24:22;101618.00;;;24.31;60.25
77161;BME280;66135;0.000;0.000;2023-07-13T13:26:50;101624.53;;;24.30;60.11
77161;BME280;66135;0.000;0.000;2023-07-13T13:29:18;101635.50;;;24.30;60.01
77161;BME280;66135;0.000;0.000;2023-07-13T13:31:44;101634.63;;;24.29;60.36
77161;BME280;66135;0.000;0.000;2023-07-13T13:34:12;101628.28;;;24.29;60.02
77161;BME280;66135;0.000;0.000;2023-07-13T13:36:39;101622.00;;;24.28;59.78
77161;BME280;66135;0.000;0.000;2023-07-13T13:39:18;101626.63;;;24.28;60.02
77161;BME280;66135;0.000;0.000;2023-07-13T13:41:45;101632.09;;;24.28;59.83
77161;BME280;66135;0.000;0.000;2023-07-13T13:44:16;101640.09;;;24.29;60.06
77161;BME280;66135;0.000;0.000;2023-07-13T13:46:46;101628.28;;;24.29;59.92
77161;BME280;66135;0.000;0.000;2023-07-13T13:49:18;101637.56;;;24.28;60.22
77161;BME280;66135;0.000;0.000;2023-07-13T13:51:44;101636.72;;;24.27;59.96
77161;BME280;66135;0.000;0.000;2023-07-13T13:54:14;101640.31;;;24.28;60.22
77161;BME280;66135;0.000;0.000;2023-07-13T13:56:42;101642.19;;;24.27;60.10